createdAt,value
2023-04-15T00:02:16.547Z,96053.09
2023-04-15T00:04:43.353Z,96061.75
2023-04-15T00:07:10.345Z,96047.09
2023-04-15T00:09:38.172Z,96058.84
2023-04-15T00:12:05.788Z,96079.19
2023-04-15T00:14:32.465Z,96087.78
2023-04-15T00:16:59.453Z,96092.88
2023-04-15T00:19:26.143Z,96056.72
2023-04-15T00:21:52.946Z,96107.63
2023-04-15T00:24:19.630Z,96108.41
2023-04-15T00:26:46.417Z,96103.25
2023-04-15T00:29:16.631Z,96078.59
2023-04-15T00:31:43.629Z,96112.91
2023-04-15T00:34:10.899Z,96114.41
2023-04-15T00:36:37.827Z,96091.91
2023-04-15T00:39:05.616Z,96112.47
2023-04-15T00:41:34.206Z,96103.22
2023-04-15T00:44:02.647Z,96099.00
2023-04-15T00:46:31.202Z,96095.13
2023-04-15T00:49:04.129Z,96100.66
2023-04-15T00:51:33.679Z,96104.16
2023-04-15T00:54:01.010Z,96110.88
2023-04-15T00:56:29.581Z,96108.69
2023-04-15T00:58:57.578Z,96080.34
2023-04-15T01:01:25.716Z,96112.75
2023-04-15T01:03:52.922Z,96113.50
2023-04-15T01:06:19.966Z,96103.25
2023-04-15T01:08:46.844Z,96114.19
2023-04-15T01:11:14.140Z,96084.00
2023-04-15T01:13:41.196Z,96106.06
2023-04-15T01:16:08.981Z,96111.13
2023-04-15T01:18:37.997Z,96107.13
2023-04-15T01:21:06.116Z,96080.47
2023-04-15T01:23:37.058Z,96099.25
2023-04-15T01:26:03.930Z,96100.03
2023-04-15T01:28:34.008Z,96078.38
2023-04-15T01:31:14.072Z,96097.31
2023-04-15T01:33:42.672Z,96095.69
2023-04-15T01:36:11.032Z,96097.25
2023-04-15T01:38:39.387Z,96109.78
2023-04-15T01:41:08.257Z,96095.88
2023-04-15T01:43:37.382Z,96100.44
2023-04-15T01:46:04.040Z,96120.06
2023-04-15T01:48:30.871Z,96129.56
2023-04-15T01:51:02.506Z,96122.56
2023-04-15T01:53:29.683Z,96125.28
2023-04-15T01:55:56.426Z,96106.38
2023-04-15T01:58:23.317Z,96142.72
2023-04-15T02:00:50.010Z,96134.75
2023-04-15T02:03:17.272Z,96136.34
2023-04-15T02:05:44.219Z,96138.63
2023-04-15T02:08:11.133Z,96122.06
2023-04-15T02:10:39.077Z,96122.25
2023-04-15T02:13:05.855Z,96158.03
2023-04-15T02:15:33.727Z,96138.88
2023-04-15T02:18:01.246Z,96111.63
2023-04-15T02:20:28.163Z,96115.22
2023-04-15T02:22:54.862Z,96143.22
2023-04-15T02:25:21.770Z,96112.59
2023-04-15T02:27:48.565Z,96138.06
2023-04-15T02:30:15.459Z,96138.50
2023-04-15T02:32:45.432Z,96135.13
2023-04-15T02:35:12.702Z,96166.06
2023-04-15T02:37:45.956Z,96148.72
2023-04-15T02:40:13.570Z,96163.59
2023-04-15T02:42:41.345Z,96166.50
2023-04-15T02:45:08.814Z,96145.56
2023-04-15T02:47:36.383Z,96149.09
2023-04-15T02:50:04.837Z,96142.97
2023-04-15T02:52:31.653Z,96145.16
2023-04-15T02:55:00.942Z,96173.28
2023-04-15T02:57:31.235Z,96125.69
2023-04-15T02:59:57.895Z,96198.25
2023-04-15T03:02:25.869Z,96160.81
2023-04-15T03:04:56.968Z,96159.97
2023-04-15T03:07:23.725Z,96145.59
2023-04-15T03:09:50.415Z,96156.34
2023-04-15T03:12:17.181Z,96132.81
2023-04-15T03:14:44.926Z,96189.84
2023-04-15T03:17:11.678Z,96170.81
2023-04-15T03:19:38.397Z,96138.66
2023-04-15T03:22:05.131Z,96170.03
2023-04-15T03:24:31.854Z,96194.28
2023-04-15T03:26:59.143Z,96201.84
2023-04-15T03:29:26.180Z,96209.34
2023-04-15T03:31:53.143Z,96209.34
2023-04-15T03:34:20.542Z,96185.66
2023-04-15T03:36:47.472Z,96199.00
2023-04-15T03:39:14.171Z,96214.94
2023-04-15T03:41:41.229Z,96192.66
2023-04-15T03:44:07.982Z,96209.47
2023-04-15T03:46:34.753Z,96192.72
2023-04-15T03:49:02.711Z,96223.72
2023-04-15T03:51:29.709Z,96224.78
2023-04-15T03:53:56.406Z,96222.97
2023-04-15T03:56:23.168Z,96209.88
2023-04-15T03:58:49.885Z,96217.69
2023-04-15T04:01:16.750Z,96216.78
2023-04-15T04:03:43.724Z,96201.16
2023-04-15T04:06:12.614Z,96212.53
2023-04-15T04:08:39.420Z,96232.16
2023-04-15T04:11:06.776Z,96208.03
2023-04-15T04:13:33.572Z,96238.28
2023-04-15T04:16:00.296Z,96235.91
2023-04-15T04:18:27.147Z,96241.69
2023-04-15T04:20:54.058Z,96242.72
2023-04-15T04:23:20.877Z,96251.19
2023-04-15T04:25:47.845Z,96242.84
2023-04-15T04:28:14.523Z,96237.91
2023-04-15T04:30:41.309Z,96267.50
2023-04-15T04:33:08.036Z,96266.03
2023-04-15T04:35:37.818Z,96264.00
2023-04-15T04:38:05.120Z,96238.72
2023-04-15T04:40:31.804Z,96250.81
2023-04-15T04:42:58.575Z,96266.25
2023-04-15T04:45:25.327Z,96254.63
2023-04-15T04:47:52.135Z,96264.22
2023-04-15T04:50:19.887Z,96255.81
2023-04-15T04:52:46.902Z,96253.91
2023-04-15T04:55:13.526Z,96264.81
2023-04-15T04:57:40.208Z,96263.81
2023-04-15T05:00:09.150Z,96251.16
2023-04-15T05:02:36.412Z,96263.34
2023-04-15T05:05:03.245Z,96263.69
2023-04-15T05:07:29.956Z,96260.56
2023-04-15T05:09:56.824Z,96266.06
2023-04-15T05:12:23.556Z,96266.53
2023-04-15T05:14:50.416Z,96273.53
2023-04-15T05:17:17.090Z,96249.38
2023-04-15T05:19:46.254Z,96279.50
2023-04-15T05:22:32.116Z,96273.47
2023-04-15T05:24:58.789Z,96263.41
2023-04-15T05:27:25.890Z,96262.94
2023-04-15T05:29:52.564Z,96267.75
2023-04-15T05:32:19.404Z,96281.06
2023-04-15T05:34:46.520Z,96276.97
2023-04-15T05:37:16.891Z,96282.31
2023-04-15T05:39:43.873Z,96284.00
2023-04-15T05:42:10.831Z,96260.25
2023-04-15T05:44:37.570Z,96275.78
2023-04-15T05:47:05.384Z,96282.09
2023-04-15T05:49:32.201Z,96279.94
2023-04-15T05:51:58.907Z,96278.72
2023-04-15T05:54:26.817Z,96261.69
2023-04-15T05:56:54.037Z,96272.44
2023-04-15T05:59:21.146Z,96282.47
2023-04-15T06:01:48.243Z,96282.81
2023-04-15T06:04:16.725Z,96271.56
2023-04-15T06:06:43.930Z,96262.19
2023-04-15T06:09:10.637Z,96290.63
2023-04-15T06:11:38.373Z,96263.63
2023-04-15T06:14:05.150Z,96297.28
2023-04-15T06:16:31.849Z,96293.81
2023-04-15T06:18:58.792Z,96264.69
2023-04-15T06:21:27.158Z,96307.25
2023-04-15T06:23:54.041Z,96295.09
2023-04-15T06:26:21.087Z,96275.50
2023-04-15T06:28:48.921Z,96287.28
2023-04-15T06:31:16.213Z,96300.91
2023-04-15T06:33:42.955Z,96305.63
2023-04-15T06:36:09.635Z,96303.63
2023-04-15T06:38:36.745Z,96315.72
2023-04-15T06:41:04.643Z,96325.38
2023-04-15T06:43:31.458Z,96303.00
2023-04-15T06:45:58.393Z,96324.06
2023-04-15T06:48:25.306Z,96339.81
2023-04-15T06:50:52.228Z,96336.59
2023-04-15T06:53:19.143Z,96340.13
2023-04-15T06:55:46.141Z,96335.97
2023-04-15T06:58:12.793Z,96347.88
2023-04-15T07:00:40.533Z,96345.72
2023-04-15T07:03:10.316Z,96335.66
2023-04-15T07:05:37.187Z,96330.75
2023-04-15T07:08:04.426Z,96335.28
2023-04-15T07:10:31.401Z,96324.06
2023-04-15T07:12:58.066Z,96352.44
2023-04-15T07:15:25.388Z,96348.50
2023-04-15T07:17:52.072Z,96352.16
2023-04-15T07:20:18.913Z,96358.63
2023-04-15T07:22:45.644Z,96370.97
2023-04-15T07:25:12.736Z,96363.13
2023-04-15T07:27:39.516Z,96323.28
2023-04-15T07:30:07.046Z,96344.59
2023-04-15T07:32:33.762Z,96370.75
2023-04-15T07:35:00.498Z,96339.97
2023-04-15T07:37:28.545Z,96356.84
2023-04-15T07:39:55.693Z,96365.94
2023-04-15T07:42:22.760Z,96365.53
2023-04-15T07:44:49.518Z,96358.75
2023-04-15T07:47:16.372Z,96366.00
2023-04-15T07:49:43.677Z,96369.59
2023-04-15T07:52:10.515Z,96356.81
2023-04-15T07:54:37.304Z,96362.69
2023-04-15T07:57:03.951Z,96362.41
2023-04-15T07:59:33.662Z,96366.78
2023-04-15T08:02:00.884Z,96346.94
2023-04-15T08:04:27.737Z,96365.81
2023-04-15T08:06:54.992Z,96371.56
2023-04-15T08:09:22.715Z,96366.53
2023-04-15T08:11:50.290Z,96364.66
2023-04-15T08:14:17.296Z,96344.53
2023-04-15T08:16:44.181Z,96368.97
2023-04-15T08:19:10.899Z,96376.19
2023-04-15T08:21:38.809Z,96382.44
2023-04-15T08:24:06.452Z,96380.91
2023-04-15T08:26:33.148Z,96367.06
2023-04-15T08:29:00.030Z,96375.25
2023-04-15T08:31:30.051Z,96393.09
2023-04-15T08:33:57.879Z,96400.44
2023-04-15T08:36:24.871Z,96400.88
2023-04-15T08:38:51.483Z,96362.34
2023-04-15T08:41:25.530Z,96402.06
2023-04-15T08:44:03.734Z,96392.00
2023-04-15T08:46:35.068Z,96390.88
2023-04-15T08:49:04.900Z,96387.72
2023-04-15T08:51:33.856Z,96382.97
2023-04-15T08:54:01.802Z,96386.63
2023-04-15T08:56:33.156Z,96398.13
2023-04-15T08:59:00.824Z,96395.00
2023-04-15T09:01:28.385Z,96373.38
2023-04-15T09:03:57.309Z,96394.25
2023-04-15T09:06:24.519Z,96399.31
2023-04-15T09:08:52.361Z,96387.25
2023-04-15T09:11:20.384Z,96381.56
2023-04-15T09:13:47.271Z,96402.00
2023-04-15T09:16:14.616Z,96379.94
2023-04-15T09:18:41.423Z,96388.09
2023-04-15T09:21:11.563Z,96401.13
2023-04-15T09:23:40.697Z,96393.50
2023-04-15T09:26:09.446Z,96393.50
2023-04-15T09:28:43.317Z,96392.75
2023-04-15T09:31:11.017Z,96395.25
2023-04-15T09:33:55.048Z,96395.81
2023-04-15T09:36:21.838Z,96396.38
2023-04-15T09:38:59.341Z,96376.84
2023-04-15T09:41:27.094Z,96391.34
2023-04-15T09:43:53.866Z,96371.38
2023-04-15T09:46:20.693Z,96398.88
2023-04-15T09:48:47.756Z,96400.59
2023-04-15T09:51:14.636Z,96382.03
2023-04-15T09:53:41.697Z,96406.00
2023-04-15T09:56:10.649Z,96399.09
2023-04-15T09:58:39.021Z,96411.28
2023-04-15T10:01:08.048Z,96404.56
2023-04-15T10:03:37.080Z,96414.34
2023-04-15T10:06:05.716Z,96407.72
2023-04-15T10:08:35.106Z,96420.44
2023-04-15T10:11:05.702Z,96387.16
2023-04-15T10:13:37.556Z,96401.72
2023-04-15T10:16:04.533Z,96409.22
2023-04-15T10:18:34.782Z,96403.94
2023-04-15T10:21:02.358Z,96397.78
2023-04-15T10:23:29.591Z,96374.84
2023-04-15T10:25:56.740Z,96405.28
2023-04-15T10:28:23.473Z,96403.94
2023-04-15T10:30:50.268Z,96402.50
2023-04-15T10:33:20.719Z,96411.22
2023-04-15T10:35:50.297Z,96408.13
2023-04-15T10:38:37.590Z,96403.97
2023-04-15T10:41:21.180Z,96407.34
2023-04-15T10:44:02.612Z,96400.88
2023-04-15T10:46:47.549Z,96405.47
2023-04-15T10:49:25.567Z,96385.53
2023-04-15T10:51:57.290Z,96386.25
2023-04-15T10:54:26.723Z,96394.88
2023-04-15T10:57:21.677Z,96392.31
2023-04-15T11:00:11.715Z,96396.50
2023-04-15T11:02:48.485Z,96367.13
2023-04-15T11:05:16.486Z,96382.28
2023-04-15T11:07:52.322Z,96387.25
2023-04-15T11:10:20.904Z,96392.06
2023-04-15T11:12:57.782Z,96377.16
2023-04-15T11:15:34.614Z,96390.19
2023-04-15T11:18:17.682Z,96383.53
2023-04-15T11:20:46.769Z,96360.94
2023-04-15T11:23:15.838Z,96362.88
2023-04-15T11:25:44.035Z,96371.09
2023-04-15T11:28:12.477Z,96376.28
2023-04-15T11:30:40.399Z,96385.16
2023-04-15T11:33:09.432Z,96346.97
2023-04-15T11:35:36.922Z,96377.66
2023-04-15T11:38:12.293Z,96388.75
2023-04-15T11:40:40.508Z,96379.72
2023-04-15T11:43:21.123Z,96369.81
2023-04-15T11:45:59.433Z,96383.84
2023-04-15T11:48:28.941Z,96382.13
2023-04-15T11:51:00.934Z,96391.84
2023-04-15T11:53:57.533Z,96397.97
2023-04-15T11:56:26.807Z,96395.16
2023-04-15T11:58:57.310Z,96394.31
2023-04-15T12:01:36.628Z,96391.44
2023-04-15T12:04:13.018Z,96412.81
2023-04-15T12:06:39.877Z,96402.03
2023-04-15T12:09:16.923Z,96405.41
2023-04-15T12:11:57.857Z,96417.25
2023-04-15T12:14:29.626Z,96418.84
2023-04-15T12:17:05.526Z,96420.00
2023-04-15T12:19:38.170Z,96430.22
2023-04-15T12:22:07.211Z,96424.34
2023-04-15T12:24:36.125Z,96422.38
2023-04-15T12:27:11.489Z,96426.81
2023-04-15T12:29:40.289Z,96430.59
2023-04-15T12:32:09.470Z,96425.84
2023-04-15T12:34:39.037Z,96434.34
2023-04-15T12:37:09.680Z,96440.41
2023-04-15T12:39:38.762Z,96436.38
2023-04-15T12:42:06.333Z,96425.25
2023-04-15T12:44:33.682Z,96447.59
2023-04-15T12:47:00.717Z,96453.47
2023-04-15T12:49:28.056Z,96459.53
2023-04-15T12:51:56.955Z,96455.16
2023-04-15T12:54:24.251Z,96413.69
2023-04-15T12:56:52.531Z,96472.28
2023-04-15T12:59:19.273Z,96468.41
2023-04-15T13:01:47.637Z,96476.44
2023-04-15T13:04:15.682Z,96472.31
2023-04-15T13:06:42.959Z,96454.63
2023-04-15T13:09:09.767Z,96480.16
2023-04-15T13:11:36.861Z,96486.53
2023-04-15T13:14:05.738Z,96500.84
2023-04-15T13:16:34.420Z,96502.44
2023-04-15T13:19:02.334Z,96510.13
2023-04-15T13:21:29.534Z,96499.06
2023-04-15T13:23:56.255Z,96503.91
2023-04-15T13:26:23.192Z,96508.66
2023-04-15T13:29:26.142Z,96491.69
2023-04-15T13:31:52.975Z,96514.19
2023-04-15T13:34:20.116Z,96496.00
2023-04-15T13:36:52.371Z,96470.41
2023-04-15T13:39:19.116Z,96489.16
2023-04-15T13:41:46.313Z,96487.56
2023-04-15T13:44:13.953Z,96476.69
2023-04-15T13:46:42.786Z,96491.09
2023-04-15T13:49:10.583Z,96488.00
2023-04-15T13:51:40.727Z,96478.06
2023-04-15T13:54:08.430Z,96475.97
2023-04-15T13:56:35.644Z,96465.38
2023-04-15T13:59:03.300Z,96449.94
2023-04-15T14:01:30.511Z,96467.53
2023-04-15T14:03:57.269Z,96472.53
2023-04-15T14:06:25.122Z,96465.53
2023-04-15T14:08:51.816Z,96476.22
2023-04-15T14:11:18.836Z,96474.06
2023-04-15T14:13:45.587Z,96475.50
2023-04-15T14:16:12.324Z,96465.91
2023-04-15T14:18:39.100Z,96466.78
2023-04-15T14:21:06.872Z,96466.78
2023-04-15T14:23:33.815Z,96461.31
2023-04-15T14:26:00.545Z,96475.19
2023-04-15T14:28:27.377Z,96468.97
2023-04-15T14:30:54.253Z,96449.97
2023-04-15T14:33:20.979Z,96461.38
2023-04-15T14:35:48.283Z,96454.31
2023-04-15T14:38:15.056Z,96462.25
2023-04-15T14:40:41.914Z,96455.22
2023-04-15T14:43:08.826Z,96463.78
2023-04-15T14:45:36.493Z,96465.78
2023-04-15T14:48:03.467Z,96463.41
2023-04-15T14:50:30.245Z,96456.44
2023-04-15T14:53:00.550Z,96428.91
2023-04-15T14:55:27.148Z,96471.31
2023-04-15T14:57:53.887Z,96471.69
2023-04-15T15:00:20.569Z,96476.78
2023-04-15T15:02:48.483Z,96468.19
2023-04-15T15:05:16.430Z,96474.50
2023-04-15T15:07:43.391Z,96482.84
2023-04-15T15:10:10.194Z,96474.97
2023-04-15T15:12:36.904Z,96482.44
2023-04-15T15:15:09.158Z,96472.63
2023-04-15T15:17:42.817Z,96473.47
2023-04-15T15:20:09.985Z,96467.91
2023-04-15T15:22:36.711Z,96476.59
2023-04-15T15:25:03.441Z,96468.81
2023-04-15T15:27:30.115Z,96469.28
2023-04-15T15:29:56.790Z,96484.94
2023-04-15T15:32:23.627Z,96479.47
2023-04-15T15:35:11.292Z,96458.69
2023-04-15T15:37:38.301Z,96491.69
2023-04-15T15:40:05.276Z,96477.13
2023-04-15T15:42:32.448Z,96492.44
2023-04-15T15:45:00.923Z,96475.97
2023-04-15T15:47:28.712Z,96496.75
2023-04-15T15:49:55.474Z,96487.75
2023-04-15T15:52:24.989Z,96492.84
2023-04-15T15:54:51.674Z,96492.84
2023-04-15T15:57:18.362Z,96498.72
2023-04-15T15:59:45.061Z,96477.91
2023-04-15T16:02:13.529Z,96500.38
2023-04-15T16:04:40.760Z,96492.25
2023-04-15T16:07:07.581Z,96489.97
2023-04-15T16:09:34.728Z,96490.75
2023-04-15T16:12:02.332Z,96485.25
2023-04-15T16:14:29.021Z,96491.53
2023-04-15T16:16:55.921Z,96503.25
2023-04-15T16:19:22.805Z,96495.78
2023-04-15T16:21:49.525Z,96494.22
2023-04-15T16:24:16.216Z,96495.38
2023-04-15T16:26:42.877Z,96499.34
2023-04-15T16:29:09.644Z,96497.75
2023-04-15T16:31:38.763Z,96493.88
2023-04-15T16:34:06.357Z,96502.91
2023-04-15T16:36:34.962Z,96495.78
2023-04-15T16:39:02.308Z,96502.41
2023-04-15T16:41:29.361Z,96522.53
2023-04-15T16:43:58.764Z,96508.16
2023-04-15T16:46:25.669Z,96519.94
2023-04-15T16:48:52.480Z,96530.03
2023-04-15T16:51:19.568Z,96525.59
2023-04-15T16:53:46.404Z,96534.16
2023-04-15T16:56:13.063Z,96543.78
2023-04-15T16:58:39.776Z,96549.09
2023-04-15T17:01:06.771Z,96532.06
2023-04-15T17:03:33.756Z,96552.09
2023-04-15T17:06:01.706Z,96546.75
2023-04-15T17:08:29.325Z,96556.91
2023-04-15T17:10:57.827Z,96527.56
2023-04-15T17:13:26.169Z,96562.13
2023-04-15T17:15:55.138Z,96559.69
2023-04-15T17:18:22.433Z,96554.69
2023-04-15T17:20:49.187Z,96582.16
2023-04-15T17:23:15.905Z,96585.94
2023-04-15T17:25:42.554Z,96569.72
2023-04-15T17:28:09.310Z,96592.13
2023-04-15T17:30:36.189Z,96572.41
2023-04-15T17:33:03.365Z,96563.72
2023-04-15T17:35:50.085Z,96600.19
2023-04-15T17:38:16.790Z,96601.34
2023-04-15T17:40:44.776Z,96611.03
2023-04-15T17:43:11.396Z,96605.94
2023-04-15T17:45:38.154Z,96615.34
2023-04-15T17:48:05.381Z,96632.16
2023-04-15T17:50:32.180Z,96645.09
2023-04-15T17:52:59.831Z,96648.19
2023-04-15T17:55:26.765Z,96638.97
2023-04-15T17:57:53.497Z,96650.28
2023-04-15T18:00:20.240Z,96657.28
2023-04-15T18:02:49.130Z,96669.25
2023-04-15T18:05:16.466Z,96675.78
2023-04-15T18:07:43.384Z,96675.97
2023-04-15T18:10:12.307Z,96690.72
2023-04-15T18:12:39.018Z,96682.72
2023-04-15T18:15:06.479Z,96663.13
2023-04-15T18:17:33.163Z,96684.31
2023-04-15T18:20:00.758Z,96669.81
2023-04-15T18:22:28.576Z,96684.31
2023-04-15T18:24:55.486Z,96705.06
2023-04-15T18:27:22.887Z,96716.22
2023-04-15T18:29:51.516Z,96711.38
2023-04-15T18:32:18.456Z,96699.31
2023-04-15T18:34:45.583Z,96714.16
2023-04-15T18:37:12.537Z,96714.41
2023-04-15T18:39:39.373Z,96713.44
2023-04-15T18:42:06.506Z,96710.25
2023-04-15T18:44:33.294Z,96726.34
2023-04-15T18:47:02.036Z,96728.19
2023-04-15T18:49:28.819Z,96736.25
2023-04-15T18:51:55.885Z,96737.84
2023-04-15T18:54:22.728Z,96733.63
2023-04-15T18:56:49.614Z,96742.16
2023-04-15T18:59:29.069Z,96742.66
2023-04-15T19:01:57.002Z,96745.63
2023-04-15T19:04:23.750Z,96740.31
2023-04-15T19:06:52.183Z,96754.28
2023-04-15T19:09:18.953Z,96752.56
2023-04-15T19:11:45.978Z,96745.25
2023-04-15T19:14:22.745Z,96744.47
2023-04-15T19:16:49.539Z,96747.75
2023-04-15T19:19:16.565Z,96719.66
2023-04-15T19:21:43.543Z,96749.81
2023-04-15T19:24:10.728Z,96734.84
2023-04-15T19:26:39.808Z,96759.22
2023-04-15T19:29:06.757Z,96751.28
2023-04-15T19:31:33.738Z,96760.56
2023-04-15T19:34:00.449Z,96765.44
2023-04-15T19:36:28.657Z,96764.88
2023-04-15T19:38:55.451Z,96767.16
2023-04-15T19:41:22.254Z,96778.25
2023-04-15T19:43:48.959Z,96770.44
2023-04-15T19:46:15.908Z,96781.44
2023-04-15T19:48:42.564Z,96781.31
2023-04-15T19:51:09.414Z,96786.63
2023-04-15T19:53:36.340Z,96778.56
2023-04-15T19:56:03.312Z,96779.69
2023-04-15T19:58:30.218Z,96784.69
2023-04-15T20:01:01.471Z,96779.81
2023-04-15T20:03:28.894Z,96787.72
2023-04-15T20:05:55.795Z,96776.94
2023-04-15T20:08:22.548Z,96787.47
2023-04-15T20:10:49.283Z,96772.41
2023-04-15T20:13:16.355Z,96776.34
2023-04-15T20:15:43.474Z,96779.63
2023-04-15T20:18:10.263Z,96770.53
2023-04-15T20:20:39.814Z,96780.47
2023-04-15T20:23:06.906Z,96776.06
2023-04-15T20:25:33.548Z,96754.31
2023-04-15T20:28:01.073Z,96761.16
2023-04-15T20:30:29.409Z,96759.66
2023-04-15T20:32:56.279Z,96753.88
2023-04-15T20:35:23.188Z,96770.69
2023-04-15T20:37:50.860Z,96769.94
2023-04-15T20:40:17.761Z,96775.28
2023-04-15T20:42:44.590Z,96776.81
2023-04-15T20:45:11.599Z,96764.44
2023-04-15T20:47:38.429Z,96782.59
2023-04-15T20:50:05.509Z,96771.53
2023-04-15T20:52:32.331Z,96778.09
2023-04-15T20:54:59.046Z,96779.69
2023-04-15T20:57:26.181Z,96780.81
2023-04-15T20:59:52.862Z,96787.00
2023-04-15T21:02:19.683Z,96780.97
2023-04-15T21:04:47.315Z,96790.06
2023-04-15T21:07:14.091Z,96788.78
2023-04-15T21:09:41.630Z,96792.63
2023-04-15T21:12:09.081Z,96807.00
2023-04-15T21:14:37.100Z,96811.16
2023-04-15T21:17:10.062Z,96818.34
2023-04-15T21:19:38.108Z,96825.53
2023-04-15T21:22:04.842Z,96839.78
2023-04-15T21:24:31.705Z,96830.41
2023-04-15T21:26:58.443Z,96853.97
2023-04-15T21:29:26.095Z,96842.84
2023-04-15T21:31:58.951Z,96856.38
2023-04-15T21:34:25.838Z,96859.91
2023-04-15T21:36:52.629Z,96876.31
2023-04-15T21:39:19.300Z,96870.88
2023-04-15T21:41:46.479Z,96879.00
2023-04-15T21:44:14.590Z,96868.66
2023-04-15T21:46:41.801Z,96880.13
2023-04-15T21:49:12.486Z,96866.75
2023-04-15T21:51:39.263Z,96850.66
2023-04-15T21:54:06.135Z,96872.31
2023-04-15T21:56:32.987Z,96874.22
2023-04-15T21:58:59.829Z,96861.34
2023-04-15T22:08:54.899Z,96882.19
2023-04-15T22:11:27.449Z,96866.72
2023-04-15T22:13:55.089Z,96893.63
2023-04-15T22:16:21.911Z,96898.59
2023-04-15T22:18:49.101Z,96904.28
2023-04-15T22:21:15.989Z,96907.97
2023-04-15T22:23:47.171Z,96901.41
2023-04-15T22:26:13.874Z,96902.38
2023-04-15T22:28:41.062Z,96911.75
2023-04-15T22:31:07.907Z,96891.00
2023-04-15T22:33:34.736Z,96922.22
2023-04-15T22:36:01.553Z,96918.91
2023-04-15T22:38:28.303Z,96913.31
2023-04-15T22:40:55.231Z,96919.81
2023-04-15T22:43:22.291Z,96916.97
2023-04-15T22:45:53.264Z,96932.88
2023-04-15T22:48:20.194Z,96936.53
2023-04-15T22:50:47.123Z,96946.84
2023-04-15T22:53:15.822Z,96917.53
2023-04-15T22:55:47.326Z,96933.78
2023-04-15T22:58:14.963Z,96948.28
2023-04-15T23:00:41.961Z,96944.25
2023-04-15T23:03:08.948Z,96927.50
2023-04-15T23:05:35.983Z,96946.63
2023-04-15T23:08:03.436Z,96947.25
2023-04-15T23:10:30.175Z,96947.38
2023-04-15T23:12:56.994Z,96940.41
2023-04-15T23:15:24.154Z,96942.59
2023-04-15T23:17:51.051Z,96941.56
2023-04-15T23:20:17.908Z,96939.28
2023-04-15T23:22:45.662Z,96948.78
2023-04-15T23:25:12.417Z,96950.41
2023-04-15T23:27:40.187Z,96944.50
2023-04-15T23:30:07.801Z,96940.44
2023-04-15T23:32:36.591Z,96949.97
2023-04-15T23:35:03.530Z,96919.97
2023-04-15T23:37:31.866Z,96954.09
2023-04-15T23:39:58.748Z,96952.00
2023-04-15T23:42:26.065Z,96956.47
2023-04-15T23:44:53.054Z,96945.97
2023-04-15T23:47:42.934Z,96955.19
2023-04-15T23:50:10.522Z,96942.19
2023-04-15T23:52:37.372Z,96953.50
2023-04-15T23:55:04.738Z,96947.31
2023-04-15T23:57:31.461Z,96963.97
2023-04-15T23:59:58.276Z,96964.25
